Laurel Park, North Carolina
Current Conditions -  °F | °C
As of 6:54 PM on Saturday 20 Dec 2014 (Local Time) from KAVL Reporting Station
Overcast Overcast  
Wind Chill: 36°   Ceiling: 1300
Heat Index: 41°   Visibility: 10mi
Dew Point: 37°   Wind: 7mph
Humidity: 86%   Direction: 170°S
Pressure: 30.18"   Gusts: NA
Location:  35.2687°N, 82.5413°W
Report Text: KAVL 202354Z 17006KT 10SM OVC013 05/03 A3018 RMK AO2 SLP223 T00500028 10067 20050 51012
Loading
Personal Weather Stations






























Interactive Weather Map New forecast layout! Learn more

10-Day Weather Forecast

Advertisements
Track Severe Weather on mobile